sensor_id;sensor_type;location;lat;lon;timestamp;P1;durP1;ratioP1;P2;durP2;ratioP2
77736;SDS011;66903;59.926;30.404;2023-03-24T00:00:09;2.88;;;0.70;;
77736;SDS011;66903;59.926;30.404;2023-03-24T00:05:17;2.95;;;0.70;;
77736;SDS011;66903;59.926;30.404;2023-03-24T00:10:19;2.15;;;0.73;;
77736;SDS011;66903;59.926;30.404;2023-03-24T00:15:21;5.35;;;0.90;;
77736;SDS011;66903;59.926;30.404;2023-03-24T00:20:23;1.08;;;0.50;;
77736;SDS011;66903;59.926;30.404;2023-03-24T00:25:28;1.40;;;0.57;;
77736;SDS011;66903;59.926;30.404;2023-03-24T00:30:35;4.28;;;0.60;;
77736;SDS011;66903;59.926;30.404;2023-03-24T00:35:35;1.92;;;0.65;;
77736;SDS011;66903;59.926;30.404;2023-03-24T00:40:38;2.25;;;0.75;;
77736;SDS011;66903;59.926;30.404;2023-03-24T00:45:44;1.85;;;0.65;;
77736;SDS011;66903;59.926;30.404;2023-03-24T00:50:46;2.35;;;0.70;;
77736;SDS011;66903;59.926;30.404;2023-03-24T00:55:49;2.30;;;0.70;;
77736;SDS011;66903;59.926;30.404;2023-03-24T01:01:08;1.67;;;0.70;;
77736;SDS011;66903;59.926;30.404;2023-03-24T01:06:08;2.42;;;0.70;;
77736;SDS011;66903;59.926;30.404;2023-03-24T01:11:10;2.85;;;0.80;;
77736;SDS011;66903;59.926;30.404;2023-03-24T01:16:11;0.95;;;0.50;;
77736;SDS011;66903;59.926;30.404;2023-03-24T01:21:12;2.78;;;0.77;;
77736;SDS011;66903;59.926;30.404;2023-03-24T01:26:25;2.30;;;0.68;;
77736;SDS011;66903;59.926;30.404;2023-03-24T01:31:47;2.40;;;0.82;;
77736;SDS011;66903;59.926;30.404;2023-03-24T01:36:48;2.13;;;0.75;;
77736;SDS011;66903;59.926;30.404;2023-03-24T01:42:26;2.42;;;0.70;;
77736;SDS011;66903;59.926;30.404;2023-03-24T01:47:27;2.53;;;0.70;;
77736;SDS011;66903;59.926;30.404;2023-03-24T01:52:32;2.85;;;0.85;;
77736;SDS011;66903;59.926;30.404;2023-03-24T02:03:34;1.98;;;0.70;;
77736;SDS011;66903;59.926;30.404;2023-03-24T02:08:55;2.00;;;0.65;;
77736;SDS011;66903;59.926;30.404;2023-03-24T02:13:57;4.07;;;1.35;;
77736;SDS011;66903;59.926;30.404;2023-03-24T02:51:26;3.45;;;1.05;;
77736;SDS011;66903;59.926;30.404;2023-03-24T03:02:05;4.15;;;1.13;;
77736;SDS011;66903;59.926;30.404;2023-03-24T03:07:09;3.13;;;1.08;;
77736;SDS011;66903;59.926;30.404;2023-03-24T03:12:11;3.83;;;1.40;;
77736;SDS011;66903;59.926;30.404;2023-03-24T03:17:15;4.28;;;1.30;;
77736;SDS011;66903;59.926;30.404;2023-03-24T03:22:21;4.72;;;1.50;;
77736;SDS011;66903;59.926;30.404;2023-03-24T03:27:28;5.13;;;1.20;;
77736;SDS011;66903;59.926;30.404;2023-03-24T03:32:38;4.57;;;1.40;;
77736;SDS011;66903;59.926;30.404;2023-03-24T03:38:07;4.35;;;1.40;;
77736;SDS011;66903;59.926;30.404;2023-03-24T03:43:07;4.60;;;1.55;;
77736;SDS011;66903;59.926;30.404;2023-03-24T03:48:08;4.47;;;1.50;;
77736;SDS011;66903;59.926;30.404;2023-03-24T03:53:10;5.22;;;1.60;;
77736;SDS011;66903;59.926;30.404;2023-03-24T03:58:16;4.35;;;1.60;;
77736;SDS011;66903;59.926;30.404;2023-03-24T04:09:02;5.43;;;1.80;;
77736;SDS011;66903;59.926;30.404;2023-03-24T04:35:01;7.22;;;2.33;;
77736;SDS011;66903;59.926;30.404;2023-03-24T04:40:09;5.95;;;2.35;;
77736;SDS011;66903;59.926;30.404;2023-03-24T04:45:14;7.00;;;2.95;;
77736;SDS011;66903;59.926;30.404;2023-03-24T04:50:25;14.10;;;2.70;;
77736;SDS011;66903;59.926;30.404;2023-03-24T04:55:41;4.85;;;2.30;;
77736;SDS011;66903;59.926;30.404;2023-03-24T05:00:50;14.40;;;2.85;;
77736;SDS011;66903;59.926;30.404;2023-03-24T05:05:51;5.28;;;2.30;;
77736;SDS011;66903;59.926;30.404;2023-03-24T05:10:52;5.03;;;2.00;;
77736;SDS011;66903;59.926;30.404;2023-03-24T05:15:52;5.00;;;2.20;;
77736;SDS011;66903;59.926;30.404;2023-03-24T05:20:53;6.25;;;2.55;;
77736;SDS011;66903;59.926;30.404;2023-03-24T05:25:53;8.07;;;2.15;;
77736;SDS011;66903;59.926;30.404;2023-03-24T05:30:54;5.80;;;2.10;;
77736;SDS011;66903;59.926;30.404;2023-03-24T05:35:55;8.48;;;2.50;;
77736;SDS011;66903;59.926;30.404;2023-03-24T05:40:58;4.75;;;1.90;;
77736;SDS011;66903;59.926;30.404;2023-03-24T05:45:59;5.28;;;2.45;;
77736;SDS011;66903;59.926;30.404;2023-03-24T05:51:00;6.10;;;2.50;;
77736;SDS011;66903;59.926;30.404;2023-03-24T05:56:00;5.30;;;2.10;;
77736;SDS011;66903;59.926;30.404;2023-03-24T06:01:06;4.53;;;2.20;;
77736;SDS011;66903;59.926;30.404;2023-03-24T06:06:09;4.82;;;2.10;;
77736;SDS011;66903;59.926;30.404;2023-03-24T06:11:15;5.13;;;2.05;;
77736;SDS011;66903;59.926;30.404;2023-03-24T06:16:16;4.63;;;1.60;;
77736;SDS011;66903;59.926;30.404;2023-03-24T06:21:18;5.68;;;2.22;;
77736;SDS011;66903;59.926;30.404;2023-03-24T06:26:19;4.22;;;1.50;;
77736;SDS011;66903;59.926;30.404;2023-03-24T06:31:19;4.75;;;1.65;;
77736;SDS011;66903;59.926;30.404;2023-03-24T06:36:20;4.72;;;1.83;;
77736;SDS011;66903;59.926;30.404;2023-03-24T06:41:22;4.18;;;1.45;;
77736;SDS011;66903;59.926;30.404;2023-03-24T06:46:23;3.67;;;1.65;;
77736;SDS011;66903;59.926;30.404;2023-03-24T06:51:24;5.28;;;1.83;;
77736;SDS011;66903;59.926;30.404;2023-03-24T06:56:24;5.20;;;1.60;;
77736;SDS011;66903;59.926;30.404;2023-03-24T07:01:26;4.20;;;1.70;;
77736;SDS011;66903;59.926;30.404;2023-03-24T07:06:26;5.60;;;1.67;;
77736;SDS011;66903;59.926;30.404;2023-03-24T07:11:28;5.32;;;1.75;;
77736;SDS011;66903;59.926;30.404;2023-03-24T07:16:29;5.45;;;2.25;;
77736;SDS011;66903;59.926;30.404;2023-03-24T07:21:30;5.32;;;1.88;;
77736;SDS011;66903;59.926;30.404;2023-03-24T07:26:30;4.88;;;1.45;;
77736;SDS011;66903;59.926;30.404;2023-03-24T07:31:31;6.10;;;2.05;;
77736;SDS011;66903;59.926;30.404;2023-03-24T07:36:36;4.43;;;1.70;;
77736;SDS011;66903;59.926;30.404;2023-03-24T07:41:37;4.47;;;1.88;;
77736;SDS011;66903;59.926;30.404;2023-03-24T07:46:38;14.32;;;1.70;;
77736;SDS011;66903;59.926;30.404;2023-03-24T07:51:38;5.28;;;1.70;;
77736;SDS011;66903;59.926;30.404;2023-03-24T07:56:39;4.07;;;1.60;;
77736;SDS011;66903;59.926;30.404;2023-03-24T08:01:40;4.40;;;1.73;;
77736;SDS011;66903;59.926;30.404;2023-03-24T08:06:41;4.82;;;1.58;;
77736;SDS011;66903;59.926;30.404;2023-03-24T08:11:42;5.30;;;1.70;;
77736;SDS011;66903;59.926;30.404;2023-03-24T08:16:43;5.38;;;1.60;;
77736;SDS011;66903;59.926;30.404;2023-03-24T08:21:45;4.82;;;1.60;;
77736;SDS011;66903;59.926;30.404;2023-03-24T08:26:45;4.32;;;1.77;;
77736;SDS011;66903;59.926;30.404;2023-03-24T08:31:46;4.38;;;1.60;;
77736;SDS011;66903;59.926;30.404;2023-03-24T08:36:47;5.18;;;1.70;;
77736;SDS011;66903;59.926;30.404;2023-03-24T08:41:48;3.85;;;1.73;;
77736;SDS011;66903;59.926;30.404;2023-03-24T08:46:49;4.47;;;1.85;;
77736;SDS011;66903;59.926;30.404;2023-03-24T08:51:49;3.70;;;1.42;;
77736;SDS011;66903;59.926;30.404;2023-03-24T08:56:50;4.40;;;1.48;;
77736;SDS011;66903;59.926;30.404;2023-03-24T09:01:51;4.95;;;1.50;;
77736;SDS011;66903;59.926;30.404;2023-03-24T09:06:51;4.22;;;1.23;;
77736;SDS011;66903;59.926;30.404;2023-03-24T09:11:54;4.03;;;1.40;;
77736;SDS011;66903;59.926;30.404;2023-03-24T09:16:54;4.25;;;1.40;;
77736;SDS011;66903;59.926;30.404;2023-03-24T09:21:55;3.40;;;1.30;;
77736;SDS011;66903;59.926;30.404;2023-03-24T09:26:55;4.25;;;1.83;;
77736;SDS011;66903;59.926;30.404;2023-03-24T09:31:56;4.70;;;1.92;;
77736;SDS011;66903;59.926;30.404;2023-03-24T09:36:57;4.07;;;1.60;;
77736;SDS011;66903;59.926;30.404;2023-03-24T09:41:57;5.03;;;1.60;;
77736;SDS011;66903;59.926;30.404;2023-03-24T09:52:35;6.57;;;2.10;;
77736;SDS011;66903;59.926;30.404;2023-03-24T09:57:42;4.80;;;1.85;;
77736;SDS011;66903;59.926;30.404;2023-03-24T10:02:46;3.83;;;1.42;;
77736;SDS011;66903;59.926;30.404;2023-03-24T10:13:20;4.55;;;2.08;;
77736;SDS011;66903;59.926;30.404;2023-03-24T10:18:43;4.20;;;1.70;;
77736;SDS011;66903;59.926;30.404;2023-03-24T10:29:34;4.18;;;1.70;;
77736;SDS011;66903;59.926;30.404;2023-03-24T10:34:35;4.60;;;2.08;;
77736;SDS011;66903;59.926;30.404;2023-03-24T10:39:39;4.53;;;1.70;;
77736;SDS011;66903;59.926;30.404;2023-03-24T10:44:40;4.85;;;1.52;;
77736;SDS011;66903;59.926;30.404;2023-03-24T10:49:51;4.20;;;1.88;;
77736;SDS011;66903;59.926;30.404;2023-03-24T10:55:13;4.13;;;1.73;;
77736;SDS011;66903;59.926;30.404;2023-03-24T11:00:18;3.15;;;1.20;;
77736;SDS011;66903;59.926;30.404;2023-03-24T11:05:27;4.80;;;2.13;;
77736;SDS011;66903;59.926;30.404;2023-03-24T11:10:32;4.80;;;1.80;;
77736;SDS011;66903;59.926;30.404;2023-03-24T11:15:34;3.72;;;1.40;;
77736;SDS011;66903;59.926;30.404;2023-03-24T11:20:38;4.07;;;1.27;;
77736;SDS011;66903;59.926;30.404;2023-03-24T11:25:43;3.22;;;1.00;;
77736;SDS011;66903;59.926;30.404;2023-03-24T11:30:49;3.25;;;1.10;;
77736;SDS011;66903;59.926;30.404;2023-03-24T11:35:52;2.85;;;0.95;;
77736;SDS011;66903;59.926;30.404;2023-03-24T11:40:59;3.45;;;1.10;;
77736;SDS011;66903;59.926;30.404;2023-03-24T11:46:06;3.53;;;1.00;;
77736;SDS011;66903;59.926;30.404;2023-03-24T11:51:09;7.30;;;1.83;;
77736;SDS011;66903;59.926;30.404;2023-03-24T11:56:16;11.32;;;1.73;;
77736;SDS011;66903;59.926;30.404;2023-03-24T12:02:00;5.53;;;1.73;;
77736;SDS011;66903;59.926;30.404;2023-03-24T12:18:01;3.60;;;1.23;;
77736;SDS011;66903;59.926;30.404;2023-03-24T12:39:26;3.05;;;1.02;;
77736;SDS011;66903;59.926;30.404;2023-03-24T13:00:08;3.22;;;1.00;;
77736;SDS011;66903;59.926;30.404;2023-03-24T13:05:23;3.10;;;0.90;;
77736;SDS011;66903;59.926;30.404;2023-03-24T13:10:31;3.00;;;0.93;;
77736;SDS011;66903;59.926;30.404;2023-03-24T13:15:44;2.80;;;0.80;;
77736;SDS011;66903;59.926;30.404;2023-03-24T13:20:49;2.72;;;0.70;;
77736;SDS011;66903;59.926;30.404;2023-03-24T13:31:04;3.42;;;1.00;;
77736;SDS011;66903;59.926;30.404;2023-03-24T13:36:10;3.10;;;1.00;;
77736;SDS011;66903;59.926;30.404;2023-03-24T13:41:21;4.45;;;0.90;;
77736;SDS011;66903;59.926;30.404;2023-03-24T13:46:26;1.23;;;0.55;;
77736;SDS011;66903;59.926;30.404;2023-03-24T13:51:34;2.78;;;0.77;;
77736;SDS011;66903;59.926;30.404;2023-03-24T13:56:39;3.40;;;0.90;;
77736;SDS011;66903;59.926;30.404;2023-03-24T14:07:40;3.67;;;0.70;;
77736;SDS011;66903;59.926;30.404;2023-03-24T14:12:53;2.53;;;0.55;;
77736;SDS011;66903;59.926;30.404;2023-03-24T14:17:55;2.33;;;0.75;;
77736;SDS011;66903;59.926;30.404;2023-03-24T14:23:21;2.50;;;0.63;;
77736;SDS011;66903;59.926;30.404;2023-03-24T14:28:42;2.28;;;0.77;;
77736;SDS011;66903;59.926;30.404;2023-03-24T14:38:52;6.13;;;1.00;;
77736;SDS011;66903;59.926;30.404;2023-03-24T14:43:54;4.07;;;0.80;;
77736;SDS011;66903;59.926;30.404;2023-03-24T14:49:04;3.15;;;1.00;;
77736;SDS011;66903;59.926;30.404;2023-03-24T14:59:36;3.75;;;1.00;;
77736;SDS011;66903;59.926;30.404;2023-03-24T15:05:11;5.10;;;1.05;;
77736;SDS011;66903;59.926;30.404;2023-03-24T15:10:21;3.33;;;1.02;;
77736;SDS011;66903;59.926;30.404;2023-03-24T15:20:45;3.25;;;0.65;;
77736;SDS011;66903;59.926;30.404;2023-03-24T15:25:46;2.45;;;1.00;;
77736;SDS011;66903;59.926;30.404;2023-03-24T15:30:47;2.88;;;0.80;;
77736;SDS011;66903;59.926;30.404;2023-03-24T15:35:53;3.25;;;1.10;;
77736;SDS011;66903;59.926;30.404;2023-03-24T15:41:07;2.33;;;0.80;;
77736;SDS011;66903;59.926;30.404;2023-03-24T15:46:43;3.00;;;1.00;;
77736;SDS011;66903;59.926;30.404;2023-03-24T15:51:54;2.35;;;0.80;;
77736;SDS011;66903;59.926;30.404;2023-03-24T16:07:31;2.60;;;0.98;;
77736;SDS011;66903;59.926;30.404;2023-03-24T16:12:36;4.05;;;1.20;;
77736;SDS011;66903;59.926;30.404;2023-03-24T16:17:43;2.28;;;0.75;;
77736;SDS011;66903;59.926;30.404;2023-03-24T16:22:55;2.05;;;0.68;;
77736;SDS011;66903;59.926;30.404;2023-03-24T16:28:02;1.80;;;0.60;;
77736;SDS011;66903;59.926;30.404;2023-03-24T16:33:03;2.80;;;0.75;;
77736;SDS011;66903;59.926;30.404;2023-03-24T16:38:04;1.65;;;0.75;;
77736;SDS011;66903;59.926;30.404;2023-03-24T16:43:05;4.63;;;0.80;;
77736;SDS011;66903;59.926;30.404;2023-03-24T16:48:05;4.43;;;1.05;;
77736;SDS011;66903;59.926;30.404;2023-03-24T16:53:06;2.80;;;0.80;;
77736;SDS011;66903;59.926;30.404;2023-03-24T16:58:09;2.47;;;0.70;;
77736;SDS011;66903;59.926;30.404;2023-03-24T17:03:11;2.47;;;0.60;;
77736;SDS011;66903;59.926;30.404;2023-03-24T17:08:32;2.38;;;0.77;;
77736;SDS011;66903;59.926;30.404;2023-03-24T17:13:32;2.75;;;1.02;;
77736;SDS011;66903;59.926;30.404;2023-03-24T17:18:33;1.63;;;0.57;;
77736;SDS011;66903;59.926;30.404;2023-03-24T17:23:38;2.25;;;0.90;;
77736;SDS011;66903;59.926;30.404;2023-03-24T17:28:39;3.15;;;0.73;;
77736;SDS011;66903;59.926;30.404;2023-03-24T17:33:39;3.17;;;0.95;;
77736;SDS011;66903;59.926;30.404;2023-03-24T17:38:40;2.75;;;0.70;;
77736;SDS011;66903;59.926;30.404;2023-03-24T17:43:43;2.22;;;0.70;;
77736;SDS011;66903;59.926;30.404;2023-03-24T17:48:45;1.67;;;0.50;;
77736;SDS011;66903;59.926;30.404;2023-03-24T17:53:46;3.63;;;0.80;;
77736;SDS011;66903;59.926;30.404;2023-03-24T17:58:46;3.83;;;0.90;;
77736;SDS011;66903;59.926;30.404;2023-03-24T18:03:47;3.85;;;0.80;;
77736;SDS011;66903;59.926;30.404;2023-03-24T18:08:51;4.30;;;0.93;;
77736;SDS011;66903;59.926;30.404;2023-03-24T18:13:52;5.97;;;0.90;;
77736;SDS011;66903;59.926;30.404;2023-03-24T18:18:53;3.25;;;0.70;;
77736;SDS011;66903;59.926;30.404;2023-03-24T18:23:53;1.33;;;0.50;;
77736;SDS011;66903;59.926;30.404;2023-03-24T18:28:55;1.90;;;0.57;;
77736;SDS011;66903;59.926;30.404;2023-03-24T18:33:55;2.63;;;0.70;;
77736;SDS011;66903;59.926;30.404;2023-03-24T18:39:04;3.60;;;0.68;;
77736;SDS011;66903;59.926;30.404;2023-03-24T18:44:10;2.47;;;0.60;;
77736;SDS011;66903;59.926;30.404;2023-03-24T18:49:12;2.75;;;0.60;;
77736;SDS011;66903;59.926;30.404;2023-03-24T18:54:13;1.77;;;0.60;;
77736;SDS011;66903;59.926;30.404;2023-03-24T18:59:14;1.13;;;0.50;;
77736;SDS011;66903;59.926;30.404;2023-03-24T19:04:17;1.58;;;0.52;;
77736;SDS011;66903;59.926;30.404;2023-03-24T19:09:27;4.45;;;1.05;;
77736;SDS011;66903;59.926;30.404;2023-03-24T19:14:27;4.20;;;0.70;;
77736;SDS011;66903;59.926;30.404;2023-03-24T19:19:28;3.13;;;0.60;;
77736;SDS011;66903;59.926;30.404;2023-03-24T19:24:30;2.45;;;0.80;;
77736;SDS011;66903;59.926;30.404;2023-03-24T19:29:31;2.75;;;0.57;;
77736;SDS011;66903;59.926;30.404;2023-03-24T19:34:32;2.05;;;0.73;;
77736;SDS011;66903;59.926;30.404;2023-03-24T19:39:32;3.92;;;0.68;;
77736;SDS011;66903;59.926;30.404;2023-03-24T19:44:33;3.65;;;0.57;;
77736;SDS011;66903;59.926;30.404;2023-03-24T19:49:34;2.22;;;0.50;;
77736;SDS011;66903;59.926;30.404;2023-03-24T19:54:35;1.63;;;0.50;;
77736;SDS011;66903;59.926;30.404;2023-03-24T19:59:35;1.48;;;0.50;;
77736;SDS011;66903;59.926;30.404;2023-03-24T20:04:36;1.15;;;0.43;;
77736;SDS011;66903;59.926;30.404;2023-03-24T20:09:36;2.20;;;0.60;;
77736;SDS011;66903;59.926;30.404;2023-03-24T20:14:37;1.35;;;0.40;;
77736;SDS011;66903;59.926;30.404;2023-03-24T20:19:37;1.58;;;0.50;;
77736;SDS011;66903;59.926;30.404;2023-03-24T20:24:38;1.67;;;0.50;;
77736;SDS011;66903;59.926;30.404;2023-03-24T20:29:39;1.13;;;0.50;;
77736;SDS011;66903;59.926;30.404;2023-03-24T20:34:40;0.25;;;0.20;;
77736;SDS011;66903;59.926;30.404;2023-03-24T20:39:41;2.17;;;0.40;;
77736;SDS011;66903;59.926;30.404;2023-03-24T20:44:42;2.88;;;0.90;;
77736;SDS011;66903;59.926;30.404;2023-03-24T20:49:43;2.05;;;0.50;;
77736;SDS011;66903;59.926;30.404;2023-03-24T20:54:43;1.13;;;0.40;;
77736;SDS011;66903;59.926;30.404;2023-03-24T20:59:47;2.28;;;0.70;;
77736;SDS011;66903;59.926;30.404;2023-03-24T21:04:48;3.25;;;0.68;;
77736;SDS011;66903;59.926;30.404;2023-03-24T21:09:48;2.28;;;0.60;;
77736;SDS011;66903;59.926;30.404;2023-03-24T21:14:49;1.17;;;0.60;;
77736;SDS011;66903;59.926;30.404;2023-03-24T21:19:49;1.77;;;0.60;;
77736;SDS011;66903;59.926;30.404;2023-03-24T21:24:53;6.57;;;0.70;;
77736;SDS011;66903;59.926;30.404;2023-03-24T21:29:58;1.35;;;0.50;;
77736;SDS011;66903;59.926;30.404;2023-03-24T21:34:59;1.55;;;0.50;;
77736;SDS011;66903;59.926;30.404;2023-03-24T21:39:59;2.78;;;1.15;;
77736;SDS011;66903;59.926;30.404;2023-03-24T21:45:01;0.98;;;0.30;;
77736;SDS011;66903;59.926;30.404;2023-03-24T21:50:02;1.50;;;0.52;;
77736;SDS011;66903;59.926;30.404;2023-03-24T21:55:06;5.22;;;0.65;;
77736;SDS011;66903;59.926;30.404;2023-03-24T22:00:08;3.78;;;0.70;;
77736;SDS011;66903;59.926;30.404;2023-03-24T22:05:13;2.95;;;0.80;;
77736;SDS011;66903;59.926;30.404;2023-03-24T22:10:16;5.95;;;0.73;;
77736;SDS011;66903;59.926;30.404;2023-03-24T22:15:29;4.63;;;0.73;;
77736;SDS011;66903;59.926;30.404;2023-03-24T22:20:30;1.58;;;0.55;;
77736;SDS011;66903;59.926;30.404;2023-03-24T22:25:31;3.40;;;0.60;;
77736;SDS011;66903;59.926;30.404;2023-03-24T22:30:33;2.25;;;0.57;;
77736;SDS011;66903;59.926;30.404;2023-03-24T22:35:36;1.70;;;0.50;;
77736;SDS011;66903;59.926;30.404;2023-03-24T22:40:37;3.40;;;0.80;;
77736;SDS011;66903;59.926;30.404;2023-03-24T22:45:37;1.88;;;0.77;;
77736;SDS011;66903;59.926;30.404;2023-03-24T22:50:39;3.03;;;0.88;;
77736;SDS011;66903;59.926;30.404;2023-03-24T22:55:40;2.30;;;0.80;;
77736;SDS011;66903;59.926;30.404;2023-03-24T23:00:44;2.25;;;0.60;;
77736;SDS011;66903;59.926;30.404;2023-03-24T23:05:47;2.38;;;0.80;;
77736;SDS011;66903;59.926;30.404;2023-03-24T23:10:48;2.97;;;0.80;;
77736;SDS011;66903;59.926;30.404;2023-03-24T23:15:48;1.20;;;0.57;;
77736;SDS011;66903;59.926;30.404;2023-03-24T23:20:49;3.17;;;0.60;;
77736;SDS011;66903;59.926;30.404;2023-03-24T23:25:49;1.55;;;0.70;;
77736;SDS011;66903;59.926;30.404;2023-03-24T23:30:50;1.40;;;0.47;;
77736;SDS011;66903;59.926;30.404;2023-03-24T23:35:56;2.08;;;0.60;;
77736;SDS011;66903;59.926;30.404;2023-03-24T23:40:57;2.33;;;0.60;;
77736;SDS011;66903;59.926;30.404;2023-03-24T23:46:01;1.77;;;0.60;;
77736;SDS011;66903;59.926;30.404;2023-03-24T23:51:20;2.47;;;0.80;;
77736;SDS011;66903;59.926;30.404;2023-03-24T23:56:21;2.38;;;0.75;;
